createdAt,value
2023-04-18T00:01:30.349Z,9.07
2023-04-18T00:03:59.950Z,9.02
2023-04-18T00:06:27.435Z,8.98
2023-04-18T00:09:04.549Z,8.95
2023-04-18T00:11:32.641Z,8.90
2023-04-18T00:14:05.117Z,8.94
2023-04-18T00:16:35.880Z,8.90
2023-04-18T00:19:10.393Z,8.90
2023-04-18T00:21:39.089Z,8.85
2023-04-18T00:24:08.522Z,8.85
2023-04-18T00:26:35.252Z,8.82
2023-04-18T00:31:44.512Z,8.70
2023-04-18T00:34:15.256Z,8.69
2023-04-18T00:36:44.387Z,8.71
2023-04-18T00:39:16.327Z,8.74
2023-04-18T00:41:45.276Z,8.74
2023-04-18T00:44:15.697Z,8.74
2023-04-18T00:46:45.071Z,8.69
2023-04-18T00:54:34.984Z,8.73
2023-04-18T00:57:02.987Z,8.76
2023-04-18T00:59:31.260Z,8.81
2023-04-18T01:02:08.297Z,8.71
2023-04-18T01:07:28.631Z,8.67
2023-04-18T01:10:08.797Z,8.67
2023-04-18T01:15:23.304Z,8.64
2023-04-18T01:20:33.215Z,8.69
2023-04-18T01:31:33.779Z,8.78
2023-04-18T01:34:10.961Z,8.81
2023-04-18T01:36:41.099Z,8.81
2023-04-18T01:39:11.773Z,8.81
2023-04-18T01:43:18.650Z,8.78
2023-04-18T01:44:37.713Z,8.80
2023-04-18T01:49:49.310Z,8.78
2023-04-18T01:52:28.270Z,8.73
2023-04-18T01:54:57.273Z,8.73
2023-04-18T02:08:37.798Z,8.75
2023-04-18T02:16:40.003Z,8.74
2023-04-18T02:21:57.094Z,8.76
2023-04-18T02:24:35.316Z,8.72
2023-04-18T02:27:09.148Z,8.74
2023-04-18T02:29:38.732Z,8.72
2023-04-18T02:35:01.031Z,8.77
2023-04-18T02:37:31.762Z,8.72
2023-04-18T02:40:02.361Z,8.70
2023-04-18T02:42:32.790Z,8.67
2023-04-18T02:45:07.860Z,8.64
2023-04-18T02:50:28.957Z,8.67
2023-04-18T02:53:04.216Z,8.60
2023-04-18T02:55:31.949Z,8.54
2023-04-18T03:06:14.859Z,8.58
2023-04-18T03:17:00.044Z,8.63
2023-04-18T03:27:50.878Z,8.65
2023-04-18T03:38:49.011Z,8.69
2023-04-18T03:52:43.510Z,8.57
2023-04-18T03:55:16.173Z,8.56
2023-04-18T04:03:31.737Z,8.54
2023-04-18T04:11:22.674Z,8.56
2023-04-18T04:14:04.473Z,8.52
2023-04-18T04:16:50.390Z,8.54
2023-04-18T04:19:28.482Z,8.55
2023-04-18T04:24:53.199Z,8.50
2023-04-18T04:30:05.912Z,8.52
2023-04-18T04:35:18.835Z,8.55
2023-04-18T04:37:48.771Z,8.49
2023-04-18T04:45:40.924Z,8.44
2023-04-18T04:48:13.801Z,8.46
2023-04-18T04:53:58.056Z,8.53
2023-04-18T05:21:09.221Z,8.56
2023-04-18T05:26:24.479Z,8.64
2023-04-18T05:28:55.627Z,8.66
2023-04-18T05:31:38.749Z,8.65
2023-04-18T05:34:10.131Z,8.65
2023-04-18T05:36:45.798Z,8.67
2023-04-18T06:07:20.605Z,9.18
2023-04-18T06:09:47.928Z,9.25
2023-04-18T06:17:45.705Z,9.41
2023-04-18T06:20:26.469Z,9.49
2023-04-18T06:33:55.722Z,9.88
2023-04-18T06:36:26.464Z,9.96
2023-04-18T06:41:38.740Z,10.22
2023-04-18T06:49:35.111Z,10.59
2023-04-18T06:52:05.084Z,10.67
2023-04-18T06:54:31.831Z,10.64
2023-04-18T07:02:40.455Z,11.26
2023-04-18T07:05:16.152Z,11.46
2023-04-18T07:07:48.142Z,11.66
2023-04-18T07:10:17.634Z,11.82
2023-04-18T07:15:30.297Z,12.11
2023-04-18T07:23:30.576Z,12.27
2023-04-18T07:26:03.374Z,12.44
2023-04-18T07:31:27.033Z,12.56
2023-04-18T07:34:01.492Z,12.53
2023-04-18T07:36:37.498Z,12.59
2023-04-18T07:41:47.303Z,12.70
2023-04-18T07:44:42.649Z,12.72
2023-04-18T07:50:00.589Z,12.92
2023-04-18T07:52:29.893Z,12.95
2023-04-18T07:54:58.854Z,12.95
2023-04-18T07:57:34.387Z,12.94
2023-04-18T08:00:04.643Z,12.90
2023-04-18T08:08:18.528Z,13.20
2023-04-18T08:19:02.982Z,13.40
2023-04-18T08:26:53.838Z,13.59
2023-04-18T08:32:04.497Z,13.68
2023-04-18T08:34:33.036Z,13.68
2023-04-18T08:40:00.336Z,13.74
2023-04-18T08:56:12.425Z,13.71
2023-04-18T09:12:51.181Z,13.70
2023-04-18T09:23:40.750Z,13.86
2023-04-18T09:31:32.869Z,14.09
2023-04-18T09:34:03.376Z,14.14
2023-04-18T09:58:54.235Z,14.28
2023-04-18T10:06:49.669Z,14.54
2023-04-18T10:12:39.148Z,14.73
2023-04-18T10:15:13.217Z,14.79
2023-04-18T10:18:02.763Z,14.77
2023-04-18T10:20:43.187Z,14.72
2023-04-18T10:23:21.274Z,14.69
2023-04-18T10:28:44.532Z,14.82
2023-04-18T10:31:15.112Z,14.84
2023-04-18T10:33:43.863Z,14.83
2023-04-18T10:36:14.294Z,14.83
2023-04-18T10:41:43.620Z,15.08
2023-04-18T10:44:12.472Z,15.23
2023-04-18T10:46:41.853Z,15.29
2023-04-18T10:49:09.382Z,15.33
2023-04-18T10:51:43.212Z,15.30
2023-04-18T10:54:12.866Z,15.31
2023-04-18T10:56:48.636Z,15.30
2023-04-18T11:02:05.878Z,15.25
2023-04-18T11:10:04.316Z,15.29
2023-04-18T11:21:04.093Z,15.19
2023-04-18T11:23:48.910Z,15.18
2023-04-18T11:29:18.336Z,15.14
2023-04-18T11:34:26.321Z,15.25
2023-04-18T11:39:47.833Z,15.29
2023-04-18T11:50:41.807Z,15.27
2023-04-18T11:53:10.864Z,15.27
2023-04-18T12:52:35.543Z,15.64
2023-04-18T12:57:52.518Z,15.69
2023-04-18T13:06:01.538Z,15.80
2023-04-18T13:30:22.006Z,16.55
2023-04-18T13:35:52.867Z,16.68
2023-04-18T13:52:05.408Z,16.95
2023-04-18T14:00:02.118Z,17.14
2023-04-18T14:36:01.333Z,17.20
2023-04-18T14:52:23.440Z,17.95
2023-04-18T15:03:17.105Z,18.70
2023-04-18T15:14:09.900Z,19.53
2023-04-18T15:16:47.051Z,19.64
2023-04-18T15:31:01.835Z,19.04
2023-04-18T15:33:28.999Z,18.80
2023-04-18T15:37:05.500Z,18.55
2023-04-18T15:41:44.612Z,18.42
2023-04-18T15:47:03.993Z,18.48
2023-04-18T15:49:30.832Z,18.31
2023-04-18T15:54:54.926Z,18.49
2023-04-18T15:57:30.197Z,18.45
2023-04-18T16:02:46.257Z,18.45
2023-04-18T16:13:40.090Z,18.79
2023-04-18T16:30:32.646Z,18.92
2023-04-18T16:38:43.016Z,18.55
2023-04-18T16:58:50.003Z,18.40
2023-04-18T17:01:19.174Z,18.50
2023-04-18T17:03:47.961Z,18.71
2023-04-18T17:06:42.317Z,18.50
2023-04-18T17:10:09.947Z,18.17
2023-04-18T17:11:57.607Z,18.11
2023-04-18T17:20:06.369Z,17.37
2023-04-18T17:22:42.677Z,17.10
2023-04-18T17:25:13.912Z,16.88
2023-04-18T17:27:42.699Z,16.75
2023-04-18T17:30:10.226Z,16.60
2023-04-18T17:32:39.469Z,16.44
2023-04-18T17:35:10.749Z,16.30
2023-04-18T17:37:39.074Z,16.08
2023-04-18T17:40:09.016Z,15.92
2023-04-18T17:42:46.417Z,15.79
2023-04-18T17:45:13.858Z,15.64
2023-04-18T17:47:42.966Z,15.53
2023-04-18T17:50:13.935Z,15.42
2023-04-18T17:52:41.831Z,15.37
2023-04-18T17:55:10.387Z,15.21
2023-04-18T17:57:38.987Z,15.08
2023-04-18T18:00:07.485Z,14.90
2023-04-18T18:02:36.173Z,14.80
2023-04-18T18:05:05.417Z,14.67
2023-04-18T18:07:34.615Z,14.58
2023-04-18T18:10:02.854Z,14.48
2023-04-18T18:12:29.455Z,14.33
2023-04-18T18:14:58.108Z,14.21
2023-04-18T18:17:27.347Z,14.16
2023-04-18T18:19:54.249Z,14.04
2023-04-18T18:22:22.804Z,14.03
2023-04-18T18:24:49.973Z,13.96
2023-04-18T18:27:16.993Z,13.78
2023-04-18T18:29:46.014Z,13.69
2023-04-18T18:32:13.181Z,13.64
2023-04-18T18:34:40.775Z,13.56
2023-04-18T18:37:09.695Z,13.44
2023-04-18T18:39:37.966Z,13.33
2023-04-18T18:42:05.556Z,13.24
2023-04-18T18:44:33.131Z,13.26
2023-04-18T18:47:01.976Z,13.25
2023-04-18T18:49:30.310Z,13.24
2023-04-18T18:51:59.286Z,13.15
2023-04-18T18:54:26.517Z,13.08
2023-04-18T18:56:54.169Z,12.99
2023-04-18T18:59:22.727Z,12.95
2023-04-18T19:01:51.922Z,12.92
2023-04-18T19:04:19.991Z,12.81
2023-04-18T19:06:48.513Z,12.80
2023-04-18T19:09:16.357Z,12.76
2023-04-18T19:11:45.461Z,12.68
2023-04-18T19:14:12.334Z,12.62
2023-04-18T19:16:39.959Z,12.54
2023-04-18T19:19:08.506Z,12.53
2023-04-18T19:21:36.213Z,12.46
2023-04-18T19:24:03.706Z,12.46
2023-04-18T19:26:32.363Z,12.45
2023-04-18T19:29:01.140Z,12.46
2023-04-18T19:31:28.535Z,12.47
2023-04-18T19:33:56.173Z,12.51
2023-04-18T19:36:25.057Z,12.45
2023-04-18T19:38:52.380Z,12.54
2023-04-18T19:41:21.257Z,12.53
2023-04-18T19:43:48.587Z,12.57
2023-04-18T19:46:16.274Z,12.48
2023-04-18T19:48:48.266Z,12.50
2023-04-18T19:51:15.354Z,12.49
2023-04-18T19:53:42.965Z,12.49
2023-04-18T19:56:12.143Z,12.52
2023-04-18T19:58:40.157Z,12.46
2023-04-18T20:01:11.795Z,12.46
2023-04-18T20:03:41.423Z,12.48
2023-04-18T20:06:09.012Z,12.45
2023-04-18T20:08:37.571Z,12.49
2023-04-18T20:11:05.123Z,12.43
2023-04-18T20:13:32.713Z,12.38
2023-04-18T20:15:59.404Z,12.39
2023-04-18T20:18:28.213Z,12.45
2023-04-18T20:20:55.497Z,12.37
2023-04-18T20:23:23.074Z,12.37
2023-04-18T20:25:51.918Z,12.36
2023-04-18T20:28:20.345Z,12.38
2023-04-18T20:30:48.082Z,12.31
2023-04-18T20:33:16.894Z,12.29
2023-04-18T20:35:45.158Z,12.27
2023-04-18T20:38:14.384Z,12.30
2023-04-18T20:40:53.224Z,12.31
2023-04-18T20:43:22.513Z,12.31
2023-04-18T20:45:50.631Z,12.28
2023-04-18T20:48:26.168Z,12.30
2023-04-18T20:50:55.845Z,12.28
2023-04-18T20:53:23.359Z,12.23
2023-04-18T20:55:52.240Z,12.19
2023-04-18T20:58:28.021Z,12.19
2023-04-18T21:01:35.501Z,12.17
2023-04-18T21:03:45.024Z,12.13
2023-04-18T21:06:12.433Z,12.10
2023-04-18T21:08:41.071Z,12.14
2023-04-18T21:11:10.048Z,11.99
2023-04-18T21:13:37.252Z,11.96
2023-04-18T21:16:06.284Z,11.91
2023-04-18T21:18:34.450Z,11.88
2023-04-18T21:21:02.046Z,11.81
2023-04-18T21:23:29.731Z,11.73
2023-04-18T21:25:58.774Z,11.71
2023-04-18T21:28:25.829Z,11.63
2023-04-18T21:30:54.409Z,11.61
2023-04-18T21:33:27.493Z,11.57
2023-04-18T21:35:54.575Z,11.57
2023-04-18T21:38:23.417Z,11.53
2023-04-18T21:40:51.831Z,11.54
2023-04-18T21:43:20.571Z,11.44
2023-04-18T21:45:48.008Z,11.39
2023-04-18T21:48:16.569Z,11.38
2023-04-18T21:50:48.233Z,11.35
2023-04-18T21:53:15.902Z,11.32
2023-04-18T21:55:44.508Z,11.30
2023-04-18T21:58:17.101Z,11.21
2023-04-18T22:00:46.028Z,11.16
2023-04-18T22:03:14.455Z,11.13
2023-04-18T22:05:41.922Z,11.14
2023-04-18T22:08:11.063Z,11.12
2023-04-18T22:10:43.248Z,11.07
2023-04-18T22:13:12.447Z,11.04
2023-04-18T22:15:42.541Z,11.00
2023-04-18T22:18:11.364Z,11.04
2023-04-18T22:20:39.637Z,10.92
2023-04-18T22:23:08.260Z,10.91
2023-04-18T22:25:35.873Z,10.88
2023-04-18T22:28:07.640Z,10.86
2023-04-18T22:30:36.475Z,10.88
2023-04-18T22:33:03.706Z,10.80
2023-04-18T22:35:36.893Z,10.80
2023-04-18T22:38:03.966Z,10.74
2023-04-18T22:40:31.458Z,10.70
2023-04-18T22:42:58.170Z,10.68
2023-04-18T22:45:27.442Z,10.65
2023-04-18T22:47:55.408Z,10.64
2023-04-18T22:50:22.942Z,10.59
2023-04-18T22:52:51.540Z,10.55
2023-04-18T22:55:20.122Z,10.49
2023-04-18T22:57:49.250Z,10.49
2023-04-18T23:00:16.291Z,10.52
2023-04-18T23:02:48.344Z,10.48
2023-04-18T23:05:15.633Z,10.44
2023-04-18T23:07:43.084Z,10.44
2023-04-18T23:10:11.733Z,10.32
2023-04-18T23:12:39.297Z,10.28
2023-04-18T23:15:07.866Z,10.30
2023-04-18T23:17:36.523Z,10.31
2023-04-18T23:20:04.107Z,10.30
2023-04-18T23:22:32.778Z,10.31
2023-04-18T23:25:06.295Z,10.32
2023-04-18T23:27:33.875Z,10.32
2023-04-18T23:30:03.262Z,10.28
2023-04-18T23:32:35.214Z,10.29
2023-04-18T23:35:03.735Z,10.26
2023-04-18T23:37:32.477Z,10.21
2023-04-18T23:39:59.906Z,10.18
2023-04-18T23:42:30.781Z,10.20
2023-04-18T23:44:59.127Z,10.15
2023-04-18T23:47:27.758Z,10.11
2023-04-18T23:49:56.952Z,10.11
2023-04-18T23:52:24.905Z,10.13
2023-04-18T23:54:52.518Z,10.07
2023-04-18T23:57:20.090Z,10.08
2023-04-18T23:59:49.264Z,10.09
